Time;durP1;ratioP1;P1;durP2;ratioP2;P2;SDS_P1;SDS_P2;PMS_P1;PMS_P2;Temp;Humidity;BMP_temperature;BMP_pressure;BME280_temperature;BME280_humidity;BME280_pressure;Samples;Min_cycle;Max_cycle;Signal;HPM_P1;HPM_P2
2022/08/21 00:00:27;;;;;;;2.60;2.50;;;;;;;;;;5054712;28;20417;-77
2022/08/21 00:02:59;;;;;;;2.67;2.47;;;;;;;;;;5055166;28;20407;-77
2022/08/21 00:05:25;;;;;;;2.27;2.17;;;;;;;;;;5055125;28;20411;-76
2022/08/21 00:07:52;;;;;;;3.03;2.73;;;;;;;;;;5055095;28;20412;-77
2022/08/21 00:10:18;;;;;;;3.43;2.53;;;;;;;;;;5055128;28;20735;-77
2022/08/21 00:12:45;;;;;;;2.30;2.30;;;;;;;;;;5053683;28;20502;-76
2022/08/21 00:15:13;;;;;;;2.63;2.40;;;;;;;;;;5054608;28;20489;-76
2022/08/21 00:17:39;;;;;;;2.30;2.17;;;;;;;;;;5054808;28;20932;-76
2022/08/21 00:20:08;;;;;;;3.70;2.10;;;;;;;;;;5054914;28;20427;-77
2022/08/21 00:22:34;;;;;;;3.80;2.20;;;;;;;;;;5053469;28;20438;-77
2022/08/21 00:25:00;;;;;;;2.60;2.40;;;;;;;;;;5054608;28;20749;-77
2022/08/21 00:27:26;;;;;;;5.57;2.73;;;;;;;;;;5053370;28;20423;-77
2022/08/21 00:29:53;;;;;;;5.13;2.40;;;;;;;;;;5054541;28;20426;-79
2022/08/21 00:32:23;;;;;;;2.80;2.70;;;;;;;;;;5054556;28;20758;-77
2022/08/21 00:34:49;;;;;;;3.00;2.70;;;;;;;;;;5054413;28;20814;-77
2022/08/21 00:37:15;;;;;;;4.23;2.30;;;;;;;;;;5054518;28;20407;-76
2022/08/21 00:39:41;;;;;;;2.83;2.63;;;;;;;;;;5054493;28;20461;-77
2022/08/21 00:42:08;;;;;;;10.67;2.27;;;;;;;;;;5054271;28;20403;-78
2022/08/21 00:44:34;;;;;;;10.73;2.50;;;;;;;;;;5054314;28;20432;-77
2022/08/21 00:46:59;;;;;;;2.20;1.87;;;;;;;;;;5053263;28;20430;-77
2022/08/21 00:49:25;;;;;;;3.73;2.10;;;;;;;;;;5052914;28;20865;-77
2022/08/21 00:51:55;;;;;;;3.33;2.53;;;;;;;;;;5060551;28;20429;-77
2022/08/21 00:54:24;;;;;;;6.37;2.40;;;;;;;;;;5073912;28;20410;-77
2022/08/21 00:56:52;;;;;;;5.20;1.90;;;;;;;;;;5074176;28;20414;-77
2022/08/21 00:59:19;;;;;;;6.97;2.77;;;;;;;;;;5074111;28;20402;-77
2022/08/21 01:01:45;;;;;;;3.13;2.23;;;;;;;;;;5074013;28;20417;-77
2022/08/21 01:04:12;;;;;;;2.47;2.30;;;;;;;;;;5072691;28;20560;-77
2022/08/21 01:06:37;;;;;;;5.80;2.53;;;;;;;;;;5073962;28;20900;-77
2022/08/21 01:09:04;;;;;;;2.67;2.30;;;;;;;;;;5073873;28;20478;-77
2022/08/21 01:11:30;;;;;;;2.03;1.90;;;;;;;;;;5073757;28;20465;-77
2022/08/21 01:13:56;;;;;;;5.53;2.40;;;;;;;;;;5071654;28;20477;-77
2022/08/21 01:16:22;;;;;;;5.07;2.40;;;;;;;;;;5073751;28;20473;-77
2022/08/21 01:18:49;;;;;;;3.77;2.27;;;;;;;;;;5073749;28;20421;-77
2022/08/21 01:21:17;;;;;;;4.70;2.50;;;;;;;;;;5073722;28;20456;-77
2022/08/21 01:23:45;;;;;;;1.90;1.90;;;;;;;;;;5073630;28;20444;-77
2022/08/21 01:26:11;;;;;;;6.97;2.80;;;;;;;;;;5072542;28;20464;-77
2022/08/21 01:28:40;;;;;;;3.63;2.10;;;;;;;;;;5073778;28;20457;-77
2022/08/21 01:31:08;;;;;;;2.13;2.13;;;;;;;;;;5073780;28;20750;-77
2022/08/21 01:33:34;;;;;;;5.47;2.17;;;;;;;;;;5073504;28;20423;-77
2022/08/21 01:36:00;;;;;;;2.70;2.50;;;;;;;;;;5073486;28;20473;-77
2022/08/21 01:38:26;;;;;;;4.57;2.47;;;;;;;;;;5073522;28;20406;-77
2022/08/21 01:40:52;;;;;;;5.47;2.20;;;;;;;;;;5073588;28;20412;-77
2022/08/21 01:43:18;;;;;;;1.93;1.93;;;;;;;;;;5072166;28;20429;-77
2022/08/21 01:45:44;;;;;;;2.67;2.47;;;;;;;;;;5072210;28;20426;-77
2022/08/21 01:48:10;;;;;;;4.30;2.20;;;;;;;;;;5073304;28;20487;-77
2022/08/21 01:50:36;;;;;;;2.13;1.90;;;;;;;;;;5073441;28;20830;-77
2022/08/21 01:53:02;;;;;;;3.50;2.67;;;;;;;;;;5073387;28;20462;-77
2022/08/21 01:55:28;;;;;;;8.93;2.10;;;;;;;;;;5072069;28;20481;-77
2022/08/21 01:57:54;;;;;;;3.00;1.97;;;;;;;;;;5072052;28;20399;-77
2022/08/21 02:00:24;;;;;;;3.00;2.43;;;;;;;;;;5073278;28;20417;-77
2022/08/21 02:02:51;;;;;;;4.90;2.53;;;;;;;;;;5073274;28;20406;-77
2022/08/21 02:05:18;;;;;;;7.70;6.90;;;;;;;;;;5073153;28;20908;-77
2022/08/21 02:07:47;;;;;;;8.77;8.07;;;;;;;;;;5073264;28;20401;-77
2022/08/21 02:10:14;;;;;;;5.50;5.00;;;;;;;;;;5073235;28;20942;-77
2022/08/21 02:12:40;;;;;;;5.80;3.23;;;;;;;;;;5073172;28;20428;-77
2022/08/21 02:15:07;;;;;;;4.33;3.93;;;;;;;;;;5073085;28;20594;-77
2022/08/21 02:17:44;;;;;;;2.30;2.30;;;;;;;;;;5073167;28;20460;-77
2022/08/21 02:20:11;;;;;;;2.63;2.43;;;;;;;;;;5073093;28;20418;-76
2022/08/21 02:22:37;;;;;;;2.80;2.60;;;;;;;;;;5073082;28;20395;-77
2022/08/21 02:25:04;;;;;;;2.93;2.63;;;;;;;;;;5075675;28;20467;-77
2022/08/21 02:27:37;;;;;;;3.83;2.37;;;;;;;;;;5076838;28;20396;-77
2022/08/21 02:30:03;;;;;;;5.30;2.40;;;;;;;;;;5076833;28;20466;-77
2022/08/21 02:32:29;;;;;;;3.13;2.63;;;;;;;;;;5076780;28;20444;-77
2022/08/21 02:34:55;;;;;;;5.57;2.70;;;;;;;;;;5075321;28;20500;-77
2022/08/21 02:37:22;;;;;;;2.20;1.90;;;;;;;;;;5076731;28;20450;-77
2022/08/21 02:39:49;;;;;;;6.10;2.13;;;;;;;;;;5076704;28;20393;-77
2022/08/21 02:42:15;;;;;;;2.50;2.30;;;;;;;;;;5076548;28;20456;-77
2022/08/21 02:44:41;;;;;;;4.57;2.43;;;;;;;;;;5076648;28;20434;-77
2022/08/21 02:47:07;;;;;;;2.23;2.10;;;;;;;;;;5076469;28;20408;-77
2022/08/21 02:49:33;;;;;;;11.03;2.80;;;;;;;;;;5076262;28;20417;-77
2022/08/21 02:51:59;;;;;;;20.13;3.13;;;;;;;;;;5076466;28;20885;-78
2022/08/21 02:54:25;;;;;;;3.23;2.40;;;;;;;;;;5075012;28;20514;-77
2022/08/21 02:56:51;;;;;;;2.37;2.27;;;;;;;;;;5076428;28;20879;-77
2022/08/21 02:59:17;;;;;;;6.47;2.50;;;;;;;;;;5076322;28;20413;-79
2022/08/21 03:01:43;;;;;;;7.03;2.63;;;;;;;;;;5075047;28;20422;-77
2022/08/21 03:04:10;;;;;;;4.13;2.33;;;;;;;;;;5076253;28;20879;-77
2022/08/21 03:06:36;;;;;;;2.33;2.13;;;;;;;;;;5076131;28;20734;-77
2022/08/21 03:09:03;;;;;;;5.57;2.00;;;;;;;;;;5076225;28;20409;-77
2022/08/21 03:11:29;;;;;;;2.30;2.10;;;;;;;;;;5076040;28;20807;-77
2022/08/21 03:13:55;;;;;;;3.23;2.43;;;;;;;;;;5074602;28;20417;-77
2022/08/21 03:16:21;;;;;;;2.50;2.40;;;;;;;;;;5075935;28;20484;-77
2022/08/21 03:18:47;;;;;;;2.40;2.17;;;;;;;;;;5075954;28;20408;-77
2022/08/21 03:21:13;;;;;;;5.53;2.40;;;;;;;;;;5075864;28;20412;-77
2022/08/21 03:23:41;;;;;;;7.93;2.30;;;;;;;;;;5075894;28;20408;-77
2022/08/21 03:26:07;;;;;;;3.03;2.83;;;;;;;;;;5075807;28;20534;-77
2022/08/21 03:28:33;;;;;;;4.90;2.40;;;;;;;;;;5075758;28;20904;-77
2022/08/21 03:30:59;;;;;;;2.30;2.20;;;;;;;;;;5075647;28;20471;-77
2022/08/21 03:33:25;;;;;;;7.50;2.50;;;;;;;;;;5075718;28;20398;-77
2022/08/21 03:35:56;;;;;;;3.30;2.50;;;;;;;;;;5074844;28;20961;-78
2022/08/21 03:38:22;;;;;;;2.73;2.30;;;;;;;;;;5075620;28;20499;-77
2022/08/21 03:40:48;;;;;;;3.17;2.70;;;;;;;;;;5075569;28;20437;-79
2022/08/21 03:43:14;;;;;;;4.33;2.43;;;;;;;;;;5075532;28;20398;-80
2022/08/21 03:45:40;;;;;;;2.40;2.40;;;;;;;;;;5075555;28;20414;-79
2022/08/21 03:48:07;;;;;;;2.93;2.27;;;;;;;;;;5075404;28;20429;-80
2022/08/21 03:50:35;;;;;;;15.57;2.80;;;;;;;;;;5075341;28;20932;-79
2022/08/21 03:53:01;;;;;;;5.70;2.50;;;;;;;;;;5075332;28;20425;-77
2022/08/21 03:55:27;;;;;;;2.57;2.30;;;;;;;;;;5075114;28;20506;-78
2022/08/21 03:57:53;;;;;;;2.40;2.10;;;;;;;;;;5075185;28;20504;-77
2022/08/21 04:00:20;;;;;;;2.30;2.20;;;;;;;;;;5075182;28;20389;-77
2022/08/21 04:02:46;;;;;;;3.07;2.20;;;;;;;;;;5075120;28;20409;-77
2022/08/21 04:05:13;;;;;;;4.10;2.30;;;;;;;;;;5075026;28;20494;-77
2022/08/21 04:07:39;;;;;;;4.00;2.03;;;;;;;;;;5074977;28;20413;-77
2022/08/21 04:10:06;;;;;;;2.43;2.30;;;;;;;;;;5074921;28;20425;-77
2022/08/21 04:12:32;;;;;;;2.50;2.30;;;;;;;;;;5074952;28;20430;-78
2022/08/21 04:14:58;;;;;;;2.30;2.20;;;;;;;;;;5074629;28;20506;-77
2022/08/21 04:17:24;;;;;;;4.07;1.60;;;;;;;;;;5075011;28;20441;-78
2022/08/21 04:19:50;;;;;;;3.57;2.40;;;;;;;;;;5074770;28;20453;-77
2022/08/21 04:22:16;;;;;;;5.00;2.70;;;;;;;;;;5074699;28;20431;-77
2022/08/21 04:24:42;;;;;;;3.90;2.33;;;;;;;;;;5074619;28;20409;-77
2022/08/21 04:27:08;;;;;;;2.40;2.30;;;;;;;;;;5074604;28;20412;-77
2022/08/21 04:29:34;;;;;;;2.33;2.30;;;;;;;;;;5074605;28;20408;-77
2022/08/21 04:32:00;;;;;;;3.50;3.20;;;;;;;;;;5074530;28;20416;-77
2022/08/21 04:34:26;;;;;;;2.53;2.43;;;;;;;;;;5074324;28;20409;-77
2022/08/21 04:36:52;;;;;;;2.63;2.53;;;;;;;;;;5074419;28;20413;-77
2022/08/21 04:39:18;;;;;;;2.50;2.40;;;;;;;;;;5074389;28;20411;-77
2022/08/21 04:41:44;;;;;;;2.77;2.60;;;;;;;;;;5074349;28;20410;-77
2022/08/21 04:44:10;;;;;;;4.00;2.20;;;;;;;;;;5074352;28;20415;-77
2022/08/21 04:46:36;;;;;;;8.83;1.90;;;;;;;;;;5074222;28;20406;-79
2022/08/21 04:49:02;;;;;;;2.20;2.10;;;;;;;;;;5074197;28;20419;-77
2022/08/21 04:51:31;;;;;;;2.20;2.10;;;;;;;;;;5074204;28;20501;-77
2022/08/21 04:54:18;;;;;;;5.07;2.50;;;;;;;;;;5074073;28;20444;-77
2022/08/21 04:56:54;;;;;;;5.17;2.50;;;;;;;;;;5074071;28;20413;-77
2022/08/21 04:59:25;;;;;;;4.60;2.27;;;;;;;;;;5073996;28;20401;-77
2022/08/21 05:01:51;;;;;;;2.87;2.43;;;;;;;;;;5074061;28;20402;-77
2022/08/21 05:04:19;;;;;;;4.03;2.60;;;;;;;;;;5074217;28;20405;-77
2022/08/21 05:06:46;;;;;;;2.23;2.07;;;;;;;;;;5073877;28;20444;-77
2022/08/21 05:09:14;;;;;;;2.50;2.40;;;;;;;;;;5073936;28;20415;-77
2022/08/21 05:11:42;;;;;;;10.27;2.40;;;;;;;;;;5073999;28;20456;-76
2022/08/21 05:14:09;;;;;;;3.50;2.70;;;;;;;;;;5073792;28;20475;-76
2022/08/21 05:16:35;;;;;;;2.23;2.23;;;;;;;;;;5073781;28;20950;-76
2022/08/21 05:19:02;;;;;;;4.30;2.63;;;;;;;;;;5073803;28;20968;-80
2022/08/21 05:21:28;;;;;;;2.57;2.47;;;;;;;;;;5073713;28;20409;-80
2022/08/21 05:23:54;;;;;;;5.37;2.50;;;;;;;;;;5072699;28;20801;-79
2022/08/21 05:26:20;;;;;;;2.70;2.60;;;;;;;;;;5073789;28;20404;-79
2022/08/21 05:28:46;;;;;;;4.73;2.50;;;;;;;;;;5073577;28;20444;-79
2022/08/21 05:31:12;;;;;;;5.87;2.50;;;;;;;;;;5073859;28;20855;-80
2022/08/21 05:33:38;;;;;;;4.67;2.50;;;;;;;;;;5073737;28;20411;-79
2022/08/21 05:36:04;;;;;;;2.70;2.50;;;;;;;;;;5073559;28;20513;-77
2022/08/21 05:38:30;;;;;;;11.87;2.53;;;;;;;;;;5073365;28;20399;-81
2022/08/21 05:40:56;;;;;;;7.53;2.70;;;;;;;;;;5073508;28;20402;-76
2022/08/21 05:43:22;;;;;;;3.23;2.90;;;;;;;;;;5073445;28;20416;-75
2022/08/21 05:45:48;;;;;;;3.53;3.20;;;;;;;;;;5073488;28;20396;-78
2022/08/21 05:48:15;;;;;;;9.30;3.10;;;;;;;;;;5073404;28;20471;-76
2022/08/21 05:50:41;;;;;;;9.80;9.10;;;;;;;;;;5073352;28;20393;-76
2022/08/21 05:53:08;;;;;;;4.53;4.20;;;;;;;;;;5073261;28;20433;-76
2022/08/21 05:55:34;;;;;;;5.60;5.07;;;;;;;;;;5073326;28;20998;-80
2022/08/21 05:58:00;;;;;;;5.50;5.03;;;;;;;;;;5073243;28;20444;-80
2022/08/21 06:00:26;;;;;;;8.90;4.50;;;;;;;;;;5076707;28;20429;-77
2022/08/21 06:02:52;;;;;;;3.60;3.40;;;;;;;;;;5077810;28;20876;-80
2022/08/21 06:05:18;;;;;;;7.20;6.10;;;;;;;;;;5077403;28;20403;-78
2022/08/21 06:07:44;;;;;;;5.40;5.00;;;;;;;;;;5077660;28;20397;-77
2022/08/21 06:10:11;;;;;;;5.30;4.80;;;;;;;;;;5077385;28;20528;-76
2022/08/21 06:12:37;;;;;;;6.07;4.63;;;;;;;;;;5077040;28;20450;-78
2022/08/21 06:15:03;;;;;;;6.70;3.33;;;;;;;;;;5077240;28;20496;-77
2022/08/21 06:17:29;;;;;;;5.60;3.57;;;;;;;;;;5077434;28;20514;-80
2022/08/21 06:19:55;;;;;;;3.93;3.10;;;;;;;;;;5077048;28;20452;-72
2022/08/21 06:22:22;;;;;;;5.50;3.13;;;;;;;;;;5077185;28;20547;-73
2022/08/21 06:24:48;;;;;;;5.53;3.00;;;;;;;;;;5076750;28;20460;-71
2022/08/21 06:27:14;;;;;;;3.77;2.93;;;;;;;;;;5076933;28;20461;-69
2022/08/21 06:29:41;;;;;;;6.23;3.47;;;;;;;;;;5076672;28;20404;-73
2022/08/21 06:32:08;;;;;;;3.57;3.30;;;;;;;;;;5076695;28;20413;-73
2022/08/21 06:34:37;;;;;;;3.20;2.90;;;;;;;;;;5076535;28;20437;-73
2022/08/21 06:37:03;;;;;;;4.57;3.13;;;;;;;;;;5076933;28;20420;-73
2022/08/21 06:39:29;;;;;;;3.57;3.27;;;;;;;;;;5076575;28;20486;-72
2022/08/21 06:41:55;;;;;;;2.77;2.77;;;;;;;;;;5076538;28;20852;-75
2022/08/21 06:44:21;;;;;;;7.73;3.47;;;;;;;;;;5076151;28;20398;-72
2022/08/21 06:46:48;;;;;;;5.07;3.27;;;;;;;;;;5075853;28;20412;-71
2022/08/21 06:49:14;;;;;;;3.07;2.87;;;;;;;;;;5075832;28;20410;-71
2022/08/21 06:51:40;;;;;;;4.50;3.07;;;;;;;;;;5075812;28;20421;-72
2022/08/21 06:54:06;;;;;;;4.70;3.07;;;;;;;;;;5076234;28;20865;-71
2022/08/21 06:56:34;;;;;;;3.57;3.27;;;;;;;;;;5076509;28;20485;-71
2022/08/21 06:59:00;;;;;;;4.63;3.30;;;;;;;;;;5076240;28;20391;-71
2022/08/21 07:01:27;;;;;;;6.20;3.07;;;;;;;;;;5074863;28;20430;-71
2022/08/21 07:03:53;;;;;;;4.93;2.70;;;;;;;;;;5075907;28;20460;-72
2022/08/21 07:06:19;;;;;;;5.87;3.57;;;;;;;;;;5076146;28;20414;-71
2022/08/21 07:08:45;;;;;;;3.20;3.00;;;;;;;;;;5076091;28;20442;-72
2022/08/21 07:11:17;;;;;;;4.40;3.13;;;;;;;;;;5074739;28;20884;-71
2022/08/21 07:13:43;;;;;;;3.03;2.87;;;;;;;;;;5075819;28;20396;-71
2022/08/21 07:16:10;;;;;;;2.73;2.63;;;;;;;;;;5076088;28;20471;-71
2022/08/21 07:18:36;;;;;;;2.87;2.70;;;;;;;;;;5074601;28;20945;-71
2022/08/21 07:21:03;;;;;;;4.50;3.33;;;;;;;;;;5075930;28;20408;-71
2022/08/21 07:23:31;;;;;;;10.83;3.40;;;;;;;;;;5075891;28;20398;-72
2022/08/21 07:25:59;;;;;;;2.80;2.60;;;;;;;;;;5075753;28;20404;-70
2022/08/21 07:28:25;;;;;;;3.20;2.67;;;;;;;;;;5074607;28;20416;-71
2022/08/21 07:30:52;;;;;;;3.03;2.83;;;;;;;;;;5075747;28;20919;-79
2022/08/21 07:33:18;;;;;;;5.50;2.90;;;;;;;;;;5075754;28;21013;-73
2022/08/21 07:35:44;;;;;;;4.20;3.17;;;;;;;;;;5075583;28;20555;-75
2022/08/21 07:38:10;;;;;;;2.80;2.60;;;;;;;;;;5075603;28;20390;-70
2022/08/21 07:40:36;;;;;;;6.17;2.60;;;;;;;;;;5075561;28;20405;-74
2022/08/21 07:43:02;;;;;;;3.30;2.90;;;;;;;;;;5075289;28;20935;-71
2022/08/21 07:45:29;;;;;;;9.93;3.23;;;;;;;;;;5075422;28;20501;-69
2022/08/21 07:47:55;;;;;;;2.93;2.73;;;;;;;;;;5075383;28;20409;-70
2022/08/21 07:50:21;;;;;;;5.90;2.67;;;;;;;;;;5075390;28;20413;-71
2022/08/21 07:52:47;;;;;;;5.17;3.80;;;;;;;;;;5077522;28;20998;-75
2022/08/21 07:55:14;;;;;;;3.57;3.20;;;;;;;;;;5075238;28;20481;-71
2022/08/21 07:57:40;;;;;;;2.87;2.67;;;;;;;;;;5075308;28;20468;-80
2022/08/21 08:00:08;;;;;;;3.53;3.30;;;;;;;;;;5075075;28;20391;-76
2022/08/21 08:02:34;;;;;;;6.77;3.13;;;;;;;;;;5074959;28;20490;-69
2022/08/21 08:05:01;;;;;;;2.80;2.60;;;;;;;;;;5075027;28;20439;-70
2022/08/21 08:07:27;;;;;;;8.33;3.80;;;;;;;;;;5074934;28;20397;-68
2022/08/21 08:09:53;;;;;;;8.03;3.80;;;;;;;;;;5074974;28;20407;-69
2022/08/21 08:12:20;;;;;;;3.37;2.43;;;;;;;;;;5074974;28;20453;-69
2022/08/21 08:14:46;;;;;;;2.73;2.63;;;;;;;;;;5074489;28;20586;-68
2022/08/21 08:17:13;;;;;;;4.63;2.70;;;;;;;;;;5074804;28;20435;-69
2022/08/21 08:19:39;;;;;;;4.40;2.97;;;;;;;;;;5074749;28;20392;-69
2022/08/21 08:22:15;;;;;;;4.63;2.83;;;;;;;;;;5074408;28;20415;-69
2022/08/21 08:24:42;;;;;;;4.97;4.37;;;;;;;;;;5074460;28;20409;-73
2022/08/21 08:27:08;;;;;;;4.60;3.43;;;;;;;;;;5074597;28;20461;-70
2022/08/21 08:29:34;;;;;;;6.60;3.03;;;;;;;;;;5074679;28;20412;-72
2022/08/21 08:32:00;;;;;;;2.90;2.70;;;;;;;;;;5074497;28;20418;-75
2022/08/21 08:34:26;;;;;;;5.27;3.50;;;;;;;;;;5074263;28;20588;-72
2022/08/21 08:36:52;;;;;;;3.60;3.30;;;;;;;;;;5074275;28;20428;-77
2022/08/21 08:39:18;;;;;;;2.90;2.80;;;;;;;;;;5074416;28;20392;-70
2022/08/21 08:41:47;;;;;;;8.20;2.83;;;;;;;;;;5074451;28;20471;-69
2022/08/21 08:44:13;;;;;;;7.67;5.97;;;;;;;;;;5073561;28;20762;-69
2022/08/21 08:46:42;;;;;;;3.40;3.10;;;;;;;;;;5074053;28;20867;-70
2022/08/21 08:49:12;;;;;;;4.17;2.60;;;;;;;;;;5074517;28;20476;-70
2022/08/21 08:51:44;;;;;;;3.77;2.67;;;;;;;;;;5074412;28;20532;-69
2022/08/21 08:54:14;;;;;;;2.47;2.30;;;;;;;;;;5073910;28;20472;-70
2022/08/21 08:56:41;;;;;;;6.33;3.20;;;;;;;;;;5073856;28;20494;-69
2022/08/21 08:59:16;;;;;;;5.23;2.50;;;;;;;;;;5073991;28;20412;-74
2022/08/21 09:01:42;;;;;;;4.30;2.97;;;;;;;;;;5074078;28;20752;-77
2022/08/21 09:04:12;;;;;;;7.07;2.97;;;;;;;;;;5073780;28;20389;-74
2022/08/21 09:06:54;;;;;;;3.83;2.83;;;;;;;;;;5073521;28;20729;-77
2022/08/21 09:09:42;;;;;;;10.33;3.23;;;;;;;;;;5073474;28;20406;-74
2022/08/21 09:12:19;;;;;;;7.60;3.00;;;;;;;;;;5073715;28;20417;-78
2022/08/21 09:14:57;;;;;;;10.57;3.17;;;;;;;;;;5073499;28;20483;-69
2022/08/21 09:17:30;;;;;;;4.93;2.87;;;;;;;;;;5073923;28;20410;-69
2022/08/21 09:20:14;;;;;;;5.13;2.80;;;;;;;;;;5073746;28;20402;-75
2022/08/21 09:22:59;;;;;;;16.33;5.93;;;;;;;;;;5073657;28;20392;-70
2022/08/21 09:25:31;;;;;;;9.67;3.70;;;;;;;;;;5073677;28;20402;-70
2022/08/21 09:27:57;;;;;;;6.00;2.90;;;;;;;;;;5073690;28;20405;-70
2022/08/21 09:30:28;;;;;;;3.83;2.83;;;;;;;;;;5073632;28;20429;-70
2022/08/21 09:32:54;;;;;;;5.60;3.30;;;;;;;;;;5073460;28;20398;-69
2022/08/21 09:35:21;;;;;;;4.33;2.73;;;;;;;;;;5073290;28;20465;-72
2022/08/21 09:37:52;;;;;;;5.70;3.20;;;;;;;;;;5073527;28;20410;-71
2022/08/21 09:40:39;;;;;;;3.53;2.87;;;;;;;;;;5073786;28;20468;-70
2022/08/21 09:43:06;;;;;;;3.90;3.27;;;;;;;;;;5073419;28;20430;-70
2022/08/21 09:45:34;;;;;;;6.90;3.50;;;;;;;;;;5073546;28;20419;-70
2022/08/21 09:48:32;;;;;;;14.50;3.00;;;;;;;;;;5073398;28;20395;-70
2022/08/21 09:51:09;;;;;;;6.60;3.70;;;;;;;;;;5050626;28;20434;-70
2022/08/21 09:53:35;;;;;;;6.20;3.30;;;;;;;;;;5073393;28;20469;-70
2022/08/21 09:58:51;;;;;;;4.83;3.17;;;;;;;;;;5082078;28;20420;-69
2022/08/21 10:01:19;;;;;;;5.40;3.37;;;;;;;;;;5083480;28;20823;-69
2022/08/21 10:03:46;;;;;;;3.63;3.33;;;;;;;;;;5081012;28;20397;-70
2022/08/21 10:06:22;;;;;;;4.67;2.73;;;;;;;;;;5079246;28;20400;-70
2022/08/21 10:08:48;;;;;;;4.33;3.00;;;;;;;;;;5082167;28;20397;-69
2022/08/21 10:11:15;;;;;;;4.03;2.97;;;;;;;;;;5081521;28;20404;-69
2022/08/21 10:13:47;;;;;;;7.20;3.47;;;;;;;;;;5082211;28;20392;-70
2022/08/21 10:16:13;;;;;;;5.90;3.33;;;;;;;;;;5081516;28;20474;-70
2022/08/21 10:18:56;;;;;;;5.50;2.70;;;;;;;;;;5079984;28;20449;-70
2022/08/21 10:21:24;;;;;;;6.77;2.60;;;;;;;;;;5077996;28;20178;-72
2022/08/21 10:23:52;;;;;;;3.37;3.07;;;;;;;;;;5077937;28;20427;-70
2022/08/21 10:26:27;;;;;;;5.43;2.87;;;;;;;;;;5073197;28;20406;-70
2022/08/21 10:29:08;;;;;;;7.50;3.00;;;;;;;;;;5073137;28;20404;-71
2022/08/21 10:31:34;;;;;;;4.33;2.60;;;;;;;;;;5073051;28;20401;-70
2022/08/21 10:34:03;;;;;;;2.63;2.40;;;;;;;;;;5073072;28;20412;-71
2022/08/21 10:36:36;;;;;;;7.30;2.87;;;;;;;;;;5072980;28;20267;-70
2022/08/21 10:39:14;;;;;;;3.30;2.23;;;;;;;;;;5072833;28;20404;-72
2022/08/21 10:41:53;;;;;;;4.47;2.50;;;;;;;;;;5072989;28;20467;-69
2022/08/21 10:44:23;;;;;;;2.93;1.80;;;;;;;;;;5072898;28;20440;-73
2022/08/21 10:46:58;;;;;;;3.43;2.37;;;;;;;;;;5076485;28;20397;-71
2022/08/21 10:49:24;;;;;;;2.07;1.97;;;;;;;;;;5076503;28;20410;-70
2022/08/21 10:52:08;;;;;;;6.37;2.73;;;;;;;;;;5076488;28;20409;-70
2022/08/21 10:54:43;;;;;;;2.13;2.03;;;;;;;;;;5076380;28;20172;-70
2022/08/21 10:57:15;;;;;;;1.83;1.63;;;;;;;;;;5076369;28;20441;-71
2022/08/21 10:59:54;;;;;;;12.13;9.13;;;;;;;;;;5076366;28;20504;-72
2022/08/21 11:02:24;;;;;;;4.33;2.47;;;;;;;;;;5075011;28;20792;-70
2022/08/21 11:04:54;;;;;;;2.20;2.00;;;;;;;;;;5076145;28;20410;-69
2022/08/21 11:07:23;;;;;;;2.03;1.93;;;;;;;;;;5076188;28;20415;-71
2022/08/21 11:09:49;;;;;;;1.80;1.67;;;;;;;;;;5076120;28;20394;-70
2022/08/21 11:12:26;;;;;;;2.50;2.07;;;;;;;;;;5076099;28;20402;-71
2022/08/21 11:14:56;;;;;;;3.57;1.97;;;;;;;;;;5075860;28;20564;-70
2022/08/21 11:17:24;;;;;;;3.80;1.60;;;;;;;;;;5076053;28;20399;-70
2022/08/21 11:19:50;;;;;;;2.40;1.80;;;;;;;;;;5076011;28;20481;-72
2022/08/21 11:22:19;;;;;;;2.43;2.07;;;;;;;;;;5075854;28;20399;-70
2022/08/21 11:24:49;;;;;;;4.50;1.80;;;;;;;;;;5075829;28;20736;-71
2022/08/21 11:27:21;;;;;;;4.80;2.30;;;;;;;;;;5075898;28;20421;-69
2022/08/21 11:29:52;;;;;;;1.83;1.73;;;;;;;;;;5075784;28;20399;-70
2022/08/21 11:32:37;;;;;;;5.90;1.90;;;;;;;;;;5075773;28;20406;-71
2022/08/21 11:35:21;;;;;;;5.80;1.77;;;;;;;;;;5075715;28;20457;-70
2022/08/21 11:37:59;;;;;;;2.00;1.90;;;;;;;;;;5075582;28;20406;-71
2022/08/21 11:40:55;;;;;;;3.57;2.20;;;;;;;;;;5075570;28;20789;-70
2022/08/21 11:43:28;;;;;;;6.10;2.17;;;;;;;;;;5038824;28;20411;-69
2022/08/21 11:45:56;;;;;;;2.83;2.17;;;;;;;;;;5075557;28;20406;-69
2022/08/21 11:48:36;;;;;;;4.27;2.07;;;;;;;;;;5075591;28;20402;-72
2022/08/21 11:51:06;;;;;;;2.60;2.10;;;;;;;;;;5075409;28;20488;-73
2022/08/21 11:53:36;;;;;;;2.40;2.20;;;;;;;;;;5075352;28;20394;-70
2022/08/21 11:56:05;;;;;;;3.07;2.87;;;;;;;;;;5075285;28;20465;-73
2022/08/21 11:58:40;;;;;;;2.37;2.17;;;;;;;;;;5074866;28;20391;-70
2022/08/21 12:01:08;;;;;;;2.10;1.97;;;;;;;;;;5075398;28;20400;-72
2022/08/21 12:03:36;;;;;;;4.30;1.73;;;;;;;;;;5075070;28;20399;-71
2022/08/21 12:06:09;;;;;;;3.47;2.60;;;;;;;;;;5075124;28;20907;-70
2022/08/21 12:08:40;;;;;;;4.57;2.30;;;;;;;;;;5075025;28;20402;-71
2022/08/21 12:11:22;;;;;;;3.90;2.23;;;;;;;;;;5075001;28;20418;-69
2022/08/21 12:13:56;;;;;;;4.23;2.63;;;;;;;;;;5074750;28;20413;-71
2022/08/21 12:16:33;;;;;;;2.57;2.37;;;;;;;;;;5075092;28;20469;-70
2022/08/21 12:19:08;;;;;;;4.40;2.43;;;;;;;;;;5074787;28;20934;-70
2022/08/21 12:21:35;;;;;;;2.10;2.00;;;;;;;;;;5074713;28;20386;-70
2022/08/21 12:24:13;;;;;;;2.10;2.00;;;;;;;;;;5074704;28;20433;-70
2022/08/21 12:26:54;;;;;;;4.10;2.53;;;;;;;;;;5074691;28;20493;-69
2022/08/21 12:29:26;;;;;;;8.93;2.20;;;;;;;;;;5074619;28;20395;-70
2022/08/21 12:31:54;;;;;;;4.70;2.30;;;;;;;;;;5074518;28;20394;-74
2022/08/21 12:34:21;;;;;;;3.40;2.40;;;;;;;;;;5074567;28;20501;-72
2022/08/21 12:37:19;;;;;;;7.33;2.00;;;;;;;;;;5074429;28;20519;-70
2022/08/21 12:39:47;;;;;;;3.33;1.90;;;;;;;;;;5051701;28;20835;-70
2022/08/21 12:42:13;;;;;;;1.80;1.73;;;;;;;;;;5074243;28;20958;-70
2022/08/21 12:44:43;;;;;;;2.33;2.13;;;;;;;;;;5074344;28;20395;-70
2022/08/21 12:47:21;;;;;;;2.83;2.33;;;;;;;;;;5074208;28;20403;-70
2022/08/21 12:49:57;;;;;;;2.20;2.00;;;;;;;;;;5074156;28;20474;-70
2022/08/21 12:52:25;;;;;;;4.37;2.03;;;;;;;;;;5074112;28;20430;-70
2022/08/21 12:54:51;;;;;;;2.00;1.70;;;;;;;;;;5072769;28;20928;-70
2022/08/21 12:57:19;;;;;;;2.20;1.97;;;;;;;;;;5074041;28;20452;-70
2022/08/21 12:59:45;;;;;;;3.97;1.87;;;;;;;;;;5074046;28;20437;-70
2022/08/21 13:02:17;;;;;;;2.30;2.10;;;;;;;;;;5073524;28;20434;-77
2022/08/21 13:04:43;;;;;;;2.97;1.70;;;;;;;;;;5073823;28;20453;-68
2022/08/21 13:07:15;;;;;;;2.00;1.90;;;;;;;;;;5073721;28;20438;-71
2022/08/21 13:09:48;;;;;;;2.20;2.00;;;;;;;;;;5072679;28;20399;-74
2022/08/21 13:12:15;;;;;;;5.53;2.00;;;;;;;;;;5073569;28;20455;-70
2022/08/21 13:14:42;;;;;;;7.20;2.50;;;;;;;;;;5073314;28;20464;-71
2022/08/21 13:17:10;;;;;;;3.13;2.10;;;;;;;;;;5073711;28;20403;-71
2022/08/21 13:19:36;;;;;;;5.30;1.93;;;;;;;;;;5073510;28;20405;-72
2022/08/21 13:22:03;;;;;;;3.00;2.10;;;;;;;;;;5072462;28;20426;-72
2022/08/21 13:24:36;;;;;;;2.10;2.00;;;;;;;;;;5073581;28;20409;-73
2022/08/21 13:27:02;;;;;;;2.13;2.03;;;;;;;;;;5073711;28;20437;-76
2022/08/21 13:29:30;;;;;;;1.90;1.80;;;;;;;;;;5073367;28;20395;-71
2022/08/21 13:32:01;;;;;;;2.70;2.37;;;;;;;;;;5073258;28;20403;-75
2022/08/21 13:34:31;;;;;;;3.90;2.00;;;;;;;;;;5073493;28;20791;-72
2022/08/21 13:36:58;;;;;;;3.87;1.70;;;;;;;;;;5073072;28;20493;-74
2022/08/21 13:39:25;;;;;;;5.13;2.00;;;;;;;;;;5073339;28;20441;-69
2022/08/21 13:41:54;;;;;;;1.67;1.57;;;;;;;;;;5073341;28;20769;-73
2022/08/21 13:44:26;;;;;;;4.90;2.10;;;;;;;;;;5072323;28;20475;-74
2022/08/21 13:46:52;;;;;;;1.80;1.70;;;;;;;;;;5073434;28;20498;-72
2022/08/21 13:49:21;;;;;;;2.03;1.83;;;;;;;;;;5073077;28;20407;-73
2022/08/21 13:51:47;;;;;;;3.83;3.53;;;;;;;;;;5073204;28;20406;-71
2022/08/21 13:54:16;;;;;;;3.17;1.80;;;;;;;;;;5073059;28;20897;-73
2022/08/21 13:56:46;;;;;;;2.17;1.70;;;;;;;;;;5072974;28;20497;-75
2022/08/21 13:59:12;;;;;;;2.03;1.93;;;;;;;;;;5073027;28;20463;-75
2022/08/21 14:01:48;;;;;;;3.00;1.90;;;;;;;;;;5072982;28;20424;-73
2022/08/21 14:04:24;;;;;;;3.93;1.93;;;;;;;;;;5073076;28;20394;-73
2022/08/21 14:06:50;;;;;;;4.63;2.13;;;;;;;;;;5073038;28;21028;-71
2022/08/21 14:09:28;;;;;;;2.40;1.87;;;;;;;;;;5073055;28;20760;-74
2022/08/21 14:11:55;;;;;;;1.77;1.70;;;;;;;;;;5072967;28;20787;-74
2022/08/21 14:14:24;;;;;;;2.00;1.73;;;;;;;;;;5071471;28;20482;-75
2022/08/21 14:16:57;;;;;;;1.57;1.57;;;;;;;;;;5072866;28;20789;-71
2022/08/21 14:19:25;;;;;;;2.13;1.70;;;;;;;;;;5072850;28;20403;-71
2022/08/21 14:21:54;;;;;;;3.03;1.50;;;;;;;;;;5076852;28;20391;-69
2022/08/21 14:24:23;;;;;;;2.10;2.00;;;;;;;;;;5076636;28;20395;-71
2022/08/21 14:26:53;;;;;;;2.37;1.70;;;;;;;;;;5076706;28;20429;-75
2022/08/21 14:29:20;;;;;;;4.80;1.77;;;;;;;;;;5076653;28;20394;-72
2022/08/21 14:31:59;;;;;;;3.77;1.90;;;;;;;;;;5076716;28;20398;-74
2022/08/21 14:34:26;;;;;;;2.40;1.50;;;;;;;;;;5076570;28;20397;-74
2022/08/21 14:36:53;;;;;;;8.30;2.33;;;;;;;;;;5076413;28;20466;-76
2022/08/21 14:39:19;;;;;;;5.13;3.70;;;;;;;;;;5076426;28;20515;-75
2022/08/21 14:41:47;;;;;;;4.10;2.20;;;;;;;;;;5076410;28;20879;-74
2022/08/21 14:44:13;;;;;;;1.30;1.30;;;;;;;;;;5076621;28;20465;-74
2022/08/21 14:46:39;;;;;;;1.60;1.50;;;;;;;;;;5076212;28;20406;-70
2022/08/21 14:49:05;;;;;;;1.80;1.50;;;;;;;;;;5076298;28;20406;-77
2022/08/21 14:51:31;;;;;;;2.13;1.70;;;;;;;;;;5076315;28;20496;-70
2022/08/21 14:53:57;;;;;;;2.10;2.00;;;;;;;;;;5076334;28;20451;-73